Huvudsida
METAR-TAF:

METAR-TAF

Flygplatser :

Namsos flygplats. Høknesøra

Namsos, Norge

latitud: 64-28N, longitud: 011-35E, höjd: 0 m

Aktuellt väderrapport

Denna rapport gjordes för 30 minuter sedan, klockan 07:20 UTC
Vind 11 kt från syd
Temperatur 7°C
Fuktighet 81%
Tryck 1010 hPa
Sikt 10 km eller mer
Brutna moln på en höjd av 3000 ft
lätta regnskurar

METAR: ENNM 180720Z 19011KT 9999 -SHRA BKN030 07/04 Q1010

Tid: 09:50 (07:50 UTC)


TAF: saknas

Aktuella väderrapporter och prognoser från 4000 flygplatser (METAR- och TAF-rapporter).

De tillgängliga stationerna syns som gula och röda prickar på kartan.

För musen över prickarna för att se namnen på stationerna.

Klicka sedan för att få väderrapporter och prognoser.

För att ändra kartan: Klicka på de gröna knapparna med ett svart kors på för att zooma in; den gröna knappen med ett streck på för att zooma ut; eller på de gröna pilarna för angränsande kartor.


METAR-TAF: